createdAt,value
2023-11-14T00:00:58.695Z,4.98
2023-11-14T00:02:02.303Z,4.99
2023-11-14T00:03:05.759Z,5.00
2023-11-14T00:04:08.938Z,5.03
2023-11-14T00:05:11.000Z,5.05
2023-11-14T00:06:15.464Z,5.07
2023-11-14T00:07:17.457Z,5.09
2023-11-14T00:08:20.452Z,5.10
2023-11-14T00:09:22.536Z,5.13
2023-11-14T00:10:24.865Z,5.16
2023-11-14T00:11:29.896Z,5.17
2023-11-14T00:12:32.025Z,5.21
2023-11-14T00:13:35.471Z,5.24
2023-11-14T00:14:37.847Z,5.28
2023-11-14T00:15:40.957Z,5.30
2023-11-14T00:16:43.031Z,5.34
2023-11-14T00:17:46.234Z,5.37
2023-11-14T00:18:48.384Z,5.40
2023-11-14T00:19:51.438Z,5.44
2023-11-14T00:20:56.036Z,5.48
2023-11-14T00:22:00.452Z,5.51
2023-11-14T00:23:02.532Z,5.55
2023-11-14T00:24:06.250Z,5.58
2023-11-14T00:25:09.367Z,5.61
2023-11-14T00:26:11.929Z,5.63
2023-11-14T00:27:18.922Z,5.66
2023-11-14T00:28:20.953Z,5.69
2023-11-14T00:29:23.962Z,5.71
2023-11-14T00:30:25.921Z,5.74
2023-11-14T00:31:28.219Z,5.77
2023-11-14T00:32:31.278Z,5.79
2023-11-14T00:33:34.827Z,5.82
2023-11-14T00:34:38.757Z,5.84
2023-11-14T00:35:41.047Z,5.87
2023-11-14T00:36:44.031Z,5.88
2023-11-14T00:37:47.456Z,5.90
2023-11-14T00:38:50.408Z,5.91
2023-11-14T00:39:52.389Z,5.92
2023-11-14T00:40:55.548Z,5.94
2023-11-14T00:41:57.720Z,5.95
2023-11-14T00:43:00.885Z,5.96
2023-11-14T00:44:03.193Z,5.99
2023-11-14T00:45:06.794Z,6.00
2023-11-14T00:46:11.977Z,6.00
2023-11-14T00:47:15.056Z,6.00
2023-11-14T00:48:17.116Z,6.00
2023-11-14T00:49:20.961Z,6.00
2023-11-14T00:50:24.436Z,6.00
2023-11-14T00:51:27.589Z,6.00
2023-11-14T00:52:29.561Z,6.02
2023-11-14T00:53:33.957Z,6.08
2023-11-14T00:54:36.082Z,6.10
2023-11-14T00:55:39.102Z,6.14
2023-11-14T00:56:41.298Z,6.16
2023-11-14T00:57:44.651Z,6.17
2023-11-14T00:58:46.709Z,6.18
2023-11-14T00:59:49.845Z,6.20
2023-11-14T01:00:51.961Z,6.22
2023-11-14T01:01:56.140Z,6.25
2023-11-14T01:03:02.220Z,6.28
2023-11-14T01:04:05.969Z,6.34
2023-11-14T01:05:09.694Z,6.38
2023-11-14T01:06:13.436Z,6.43
2023-11-14T01:07:15.424Z,6.45
2023-11-14T01:08:18.402Z,6.49
2023-11-14T01:09:23.029Z,6.53
2023-11-14T01:10:26.069Z,6.56
2023-11-14T01:11:28.297Z,6.58
2023-11-14T01:12:31.416Z,6.60
2023-11-14T01:13:33.481Z,6.63
2023-11-14T01:14:36.564Z,6.64
2023-11-14T01:15:39.081Z,6.66
2023-11-14T01:16:42.166Z,6.67
2023-11-14T01:17:45.111Z,6.69
2023-11-14T01:18:48.198Z,6.71
2023-11-14T01:19:51.649Z,6.71
2023-11-14T01:20:54.738Z,6.71
2023-11-14T01:21:56.821Z,6.72
2023-11-14T01:22:59.990Z,6.72
2023-11-14T01:24:02.118Z,6.72
2023-11-14T01:25:08.426Z,6.73
2023-11-14T01:26:10.504Z,6.73
2023-11-14T01:27:13.535Z,6.72
2023-11-14T01:28:15.642Z,6.73
2023-11-14T01:29:18.628Z,6.72
2023-11-14T01:30:20.571Z,6.73
2023-11-14T01:31:24.004Z,6.72
2023-11-14T01:32:27.445Z,6.73
2023-11-14T01:33:30.501Z,6.74
2023-11-14T01:34:32.640Z,6.77
2023-11-14T01:35:35.615Z,6.80
2023-11-14T01:36:39.145Z,6.81
2023-11-14T01:37:43.480Z,6.83
2023-11-14T01:38:45.977Z,6.86
2023-11-14T01:39:48.951Z,6.89
2023-11-14T01:40:52.821Z,6.92
2023-11-14T01:41:55.851Z,6.94
2023-11-14T01:43:01.484Z,6.97
2023-11-14T01:44:04.887Z,6.99
2023-11-14T01:45:07.912Z,7.03
2023-11-14T01:46:11.376Z,7.05
2023-11-14T01:47:13.573Z,7.09
2023-11-14T01:48:17.378Z,7.10
2023-11-14T01:49:20.259Z,7.13
2023-11-14T01:50:23.806Z,7.15
2023-11-14T01:51:26.653Z,7.19
2023-11-14T01:52:28.910Z,7.22
2023-11-14T01:53:32.166Z,7.26
2023-11-14T01:54:35.125Z,7.31
2023-11-14T01:55:38.515Z,7.37
2023-11-14T01:56:42.652Z,7.41
2023-11-14T01:57:47.398Z,7.44
2023-11-14T01:58:51.141Z,7.48
2023-11-14T01:59:54.740Z,7.50
2023-11-14T02:00:57.171Z,7.54
2023-11-14T02:02:00.688Z,7.55
2023-11-14T02:03:02.962Z,7.57
2023-11-14T02:04:11.390Z,7.61
2023-11-14T02:05:13.461Z,7.62
2023-11-14T02:06:16.618Z,7.64
2023-11-14T02:07:20.612Z,7.67
2023-11-14T02:08:27.212Z,7.70
2023-11-14T02:09:29.234Z,7.72
2023-11-14T02:10:32.367Z,7.73
2023-11-14T02:11:34.593Z,7.75
2023-11-14T02:12:39.130Z,7.77
2023-11-14T02:13:44.743Z,7.79
2023-11-14T02:14:47.807Z,7.80
2023-11-14T02:15:49.926Z,7.82
2023-11-14T02:16:56.236Z,7.85
2023-11-14T02:17:58.608Z,7.86
2023-11-14T02:19:01.698Z,7.88
2023-11-14T02:20:04.412Z,7.89
2023-11-14T02:21:07.859Z,7.91
2023-11-14T02:22:09.949Z,7.92
2023-11-14T02:23:13.803Z,7.94
2023-11-14T02:24:17.128Z,7.96
2023-11-14T02:25:21.503Z,7.97
2023-11-14T02:26:23.535Z,7.97
2023-11-14T02:27:26.682Z,7.99
2023-11-14T02:28:28.791Z,7.99
2023-11-14T02:29:32.088Z,8.01
2023-11-14T02:30:34.241Z,8.02
2023-11-14T02:31:36.428Z,8.04
2023-11-14T02:32:40.680Z,8.06
2023-11-14T02:33:42.750Z,8.06
2023-11-14T02:34:45.724Z,8.10
2023-11-14T02:35:48.091Z,8.11
2023-11-14T02:36:51.108Z,8.13
2023-11-14T02:37:57.712Z,8.16
2023-11-14T02:38:59.775Z,8.17
2023-11-14T02:40:04.543Z,8.19
2023-11-14T02:41:08.320Z,8.21
2023-11-14T02:42:12.833Z,8.23
2023-11-14T02:44:56.160Z,8.25
2023-11-14T02:45:58.212Z,8.26
2023-11-14T02:47:01.345Z,8.26
2023-11-14T02:48:05.432Z,8.27
2023-11-14T02:49:24.222Z,8.28
2023-11-14T02:50:49.923Z,8.28
2023-11-14T02:51:53.081Z,8.27
2023-11-14T02:52:55.970Z,8.27
2023-11-14T02:53:58.963Z,8.30
2023-11-14T02:55:00.941Z,8.32
2023-11-14T02:56:05.778Z,8.32
2023-11-14T02:57:10.840Z,8.34
2023-11-14T02:58:14.124Z,8.36
2023-11-14T02:59:16.434Z,8.38
2023-11-14T03:00:19.658Z,8.39
2023-11-14T03:01:21.796Z,8.40
2023-11-14T03:02:25.785Z,8.41
2023-11-14T03:03:27.869Z,8.42
2023-11-14T03:04:30.960Z,8.43
2023-11-14T03:05:33.037Z,8.44
2023-11-14T03:06:40.400Z,8.46
2023-11-14T03:07:42.403Z,8.46
2023-11-14T03:08:45.408Z,8.46
2023-11-14T03:09:47.366Z,8.47
2023-11-14T03:10:50.477Z,8.48
2023-11-14T03:11:52.536Z,8.48
2023-11-14T03:12:56.913Z,8.50
2023-11-14T03:13:59.075Z,8.49
2023-11-14T03:15:02.128Z,8.50
2023-11-14T03:16:04.939Z,8.51
2023-11-14T03:17:08.266Z,8.50
2023-11-14T03:18:10.338Z,8.50
2023-11-14T03:19:13.375Z,8.51
2023-11-14T03:20:20.839Z,8.51
2023-11-14T03:21:31.599Z,8.50
2023-11-14T03:22:33.603Z,8.49
2023-11-14T03:23:36.615Z,8.49
2023-11-14T03:24:39.328Z,8.47
2023-11-14T03:25:42.370Z,8.45
2023-11-14T03:26:44.369Z,8.42
2023-11-14T03:27:47.651Z,8.40
2023-11-14T03:28:51.016Z,8.38
2023-11-14T03:29:54.070Z,8.36
2023-11-14T03:30:56.052Z,8.38
2023-11-14T03:31:59.165Z,8.38
2023-11-14T03:33:04.161Z,8.36
2023-11-14T03:34:07.284Z,8.38
2023-11-14T03:35:10.836Z,8.38
2023-11-14T03:36:13.871Z,8.37
2023-11-14T03:37:15.862Z,8.37
2023-11-14T03:38:18.924Z,8.37
2023-11-14T03:39:21.063Z,8.37
2023-11-14T03:40:24.419Z,8.36
2023-11-14T03:41:26.371Z,8.36
2023-11-14T03:42:29.355Z,8.35
2023-11-14T03:43:31.381Z,8.33
2023-11-14T03:44:35.829Z,8.31
2023-11-14T03:45:37.900Z,8.29
2023-11-14T03:46:41.268Z,8.25
2023-11-14T03:47:43.709Z,8.20
2023-11-14T03:48:46.851Z,8.17
2023-11-14T03:49:48.828Z,8.11
2023-11-14T03:50:52.150Z,8.06
2023-11-14T03:51:54.133Z,8.01
2023-11-14T03:52:57.150Z,7.95
2023-11-14T03:54:00.511Z,7.92
2023-11-14T03:55:03.699Z,7.89
2023-11-14T03:56:09.932Z,7.86
2023-11-14T03:57:13.659Z,7.83
2023-11-14T03:58:15.723Z,7.80
2023-11-14T03:59:18.767Z,7.79
2023-11-14T04:00:22.195Z,7.78
2023-11-14T04:01:25.251Z,7.78
2023-11-14T04:02:28.017Z,7.77
2023-11-14T04:03:31.683Z,7.75
2023-11-14T04:04:34.333Z,7.73
2023-11-14T04:05:37.892Z,7.72
2023-11-14T04:06:40.875Z,7.70
2023-11-14T04:07:43.384Z,7.70
2023-11-14T04:08:46.367Z,7.68
2023-11-14T04:09:48.583Z,7.66
2023-11-14T04:10:51.630Z,7.66
2023-11-14T04:11:53.713Z,7.68
2023-11-14T04:12:57.054Z,7.69
2023-11-14T04:13:59.983Z,7.71
2023-11-14T04:15:03.106Z,7.73
2023-11-14T04:16:10.239Z,7.75
2023-11-14T04:17:14.764Z,7.77
2023-11-14T04:18:17.043Z,7.77
2023-11-14T04:19:20.214Z,7.77
2023-11-14T04:20:22.365Z,7.78
2023-11-14T04:21:25.322Z,7.78
2023-11-14T04:22:27.292Z,7.78
2023-11-14T04:23:29.282Z,7.80
2023-11-14T04:24:33.737Z,7.79
2023-11-14T04:25:36.073Z,7.78
2023-11-14T04:26:38.315Z,7.77
2023-11-14T04:27:42.117Z,7.75
2023-11-14T04:28:44.876Z,7.74
2023-11-14T04:29:47.913Z,7.75
2023-11-14T04:30:49.871Z,7.75
2023-11-14T04:31:53.302Z,7.73
2023-11-14T04:32:56.644Z,7.73
2023-11-14T04:33:58.657Z,7.73
2023-11-14T04:35:01.641Z,7.74
2023-11-14T04:36:04.461Z,7.73
2023-11-14T04:37:10.448Z,7.73
2023-11-14T04:38:12.732Z,7.73
2023-11-14T04:39:16.193Z,7.72
2023-11-14T04:40:18.321Z,7.72
2023-11-14T04:41:21.725Z,7.72
2023-11-14T04:42:23.757Z,7.73
2023-11-14T04:43:26.842Z,7.73
2023-11-14T04:44:28.808Z,7.72
2023-11-14T04:45:31.787Z,7.71
2023-11-14T04:46:34.647Z,7.70
2023-11-14T04:47:39.159Z,7.69
2023-11-14T04:48:41.239Z,7.69
2023-11-14T04:49:45.802Z,7.68
2023-11-14T04:50:47.850Z,7.68
2023-11-14T04:51:50.839Z,7.67
2023-11-14T04:52:52.831Z,7.67
2023-11-14T04:53:55.811Z,7.67
2023-11-14T04:54:58.014Z,7.66
2023-11-14T04:56:00.964Z,7.65
2023-11-14T04:57:03.024Z,7.65
2023-11-14T04:58:05.119Z,7.66
2023-11-14T04:59:08.125Z,7.66
2023-11-14T05:00:10.730Z,7.65
2023-11-14T05:01:13.850Z,7.67
2023-11-14T05:02:15.911Z,7.65
2023-11-14T05:03:20.351Z,7.66
2023-11-14T05:04:22.502Z,7.65
2023-11-14T05:05:25.557Z,7.64
2023-11-14T05:06:27.532Z,7.64
2023-11-14T05:07:31.296Z,7.64
2023-11-14T05:08:33.416Z,7.65
2023-11-14T05:09:36.790Z,7.66
2023-11-14T05:10:38.996Z,7.67
2023-11-14T05:11:42.046Z,7.67
2023-11-14T05:12:44.017Z,7.68
2023-11-14T05:13:47.008Z,7.70
2023-11-14T05:14:49.177Z,7.70
2023-11-14T05:15:52.149Z,7.72
2023-11-14T05:16:57.321Z,7.73
2023-11-14T05:18:00.698Z,7.75
2023-11-14T05:19:04.141Z,7.76
2023-11-14T05:20:08.358Z,7.77
2023-11-14T05:21:10.372Z,7.76
2023-11-14T05:22:13.595Z,7.78
2023-11-14T05:23:16.951Z,7.76
2023-11-14T05:24:18.993Z,7.77
2023-11-14T05:25:21.961Z,7.77
2023-11-14T05:26:24.161Z,7.78
2023-11-14T05:27:27.208Z,7.79
2023-11-14T05:28:29.336Z,7.78
2023-11-14T05:29:35.192Z,7.79
2023-11-14T05:30:38.842Z,7.78
2023-11-14T05:31:41.792Z,7.77
2023-11-14T05:32:43.830Z,7.79
2023-11-14T05:33:47.193Z,7.78
2023-11-14T05:34:50.529Z,7.79
2023-11-14T05:35:53.587Z,7.79
2023-11-14T05:36:55.535Z,7.80
2023-11-14T05:37:58.698Z,7.80
2023-11-14T05:39:00.896Z,7.80
2023-11-14T05:40:04.307Z,7.81
2023-11-14T05:41:06.545Z,7.80
2023-11-14T05:42:09.565Z,7.80
2023-11-14T05:43:11.528Z,7.80
2023-11-14T05:44:16.203Z,7.81
2023-11-14T05:45:18.239Z,7.82
2023-11-14T05:46:21.353Z,7.82
2023-11-14T05:47:23.369Z,7.82
2023-11-14T05:48:25.462Z,7.83
2023-11-14T05:49:29.295Z,7.83
2023-11-14T05:50:32.801Z,7.84
2023-11-14T05:51:35.895Z,7.85
2023-11-14T05:52:37.871Z,7.85
2023-11-14T05:53:43.909Z,7.85
2023-11-14T05:54:46.232Z,7.85
2023-11-14T05:55:49.178Z,7.85
2023-11-14T05:56:51.153Z,7.84
2023-11-14T05:57:54.109Z,7.84
2023-11-14T05:58:56.115Z,7.81
2023-11-14T05:59:59.080Z,7.79
2023-11-14T06:01:02.583Z,7.78
2023-11-14T06:02:07.648Z,7.76
2023-11-14T06:03:09.751Z,7.75
2023-11-14T06:04:12.871Z,7.72
2023-11-14T06:05:14.940Z,7.72
2023-11-14T06:06:19.307Z,7.70
2023-11-14T06:07:21.554Z,7.69
2023-11-14T06:08:24.565Z,7.67
2023-11-14T06:09:26.602Z,7.66
2023-11-14T06:10:29.775Z,7.65
2023-11-14T06:11:31.756Z,7.64
2023-11-14T06:12:34.978Z,7.61
2023-11-14T06:13:37.096Z,7.61
2023-11-14T06:14:40.077Z,7.58
2023-11-14T06:15:42.066Z,7.55
2023-11-14T06:16:45.298Z,7.55
2023-11-14T06:17:47.424Z,7.53
2023-11-14T06:18:50.398Z,7.52
2023-11-14T06:19:52.428Z,7.52
2023-11-14T06:20:55.377Z,7.52
2023-11-14T06:21:58.725Z,7.52
2023-11-14T06:23:02.458Z,7.54
2023-11-14T06:24:04.977Z,7.57
2023-11-14T06:25:09.033Z,7.59
2023-11-14T06:26:11.213Z,7.59
2023-11-14T06:27:14.383Z,7.61
2023-11-14T06:28:16.387Z,7.62
2023-11-14T06:29:18.738Z,7.65
2023-11-14T06:30:23.163Z,7.65
2023-11-14T06:31:25.423Z,7.66
2023-11-14T06:32:30.128Z,7.68
2023-11-14T06:33:33.797Z,7.68
2023-11-14T06:34:37.145Z,7.68
2023-11-14T06:35:39.834Z,7.68
2023-11-14T06:36:42.798Z,7.69
2023-11-14T06:37:46.142Z,7.69
2023-11-14T06:38:49.285Z,7.72
2023-11-14T06:39:51.939Z,7.73
2023-11-14T06:40:55.304Z,7.74
2023-11-14T06:41:57.387Z,7.78
2023-11-14T06:43:00.364Z,7.80
2023-11-14T06:44:02.401Z,7.84
2023-11-14T06:45:07.021Z,7.88
2023-11-14T06:46:09.629Z,7.91
2023-11-14T06:47:13.524Z,7.94
2023-11-14T06:48:15.679Z,7.97
2023-11-14T06:49:18.722Z,7.99
2023-11-14T06:50:29.975Z,8.01
2023-11-14T06:51:40.989Z,8.02
2023-11-14T06:52:42.997Z,8.04
2023-11-14T06:53:50.072Z,8.06
2023-11-14T06:54:52.082Z,8.06
2023-11-14T06:55:55.108Z,8.07
2023-11-14T06:56:57.126Z,8.09
2023-11-14T06:58:00.446Z,8.13
2023-11-14T06:59:02.955Z,8.14
2023-11-14T07:00:08.442Z,8.19
2023-11-14T07:01:13.210Z,8.20
2023-11-14T07:02:16.719Z,8.21
2023-11-14T07:03:18.761Z,8.24
2023-11-14T07:04:22.058Z,8.27
2023-11-14T07:05:24.148Z,8.30
2023-11-14T07:06:29.905Z,8.33
2023-11-14T07:07:31.908Z,8.36
2023-11-14T07:08:34.873Z,8.38
2023-11-14T07:09:38.246Z,8.42
2023-11-14T07:10:41.723Z,8.45
2023-11-14T07:11:45.743Z,8.48
2023-11-14T07:12:48.709Z,8.50
2023-11-14T07:13:50.876Z,8.52
2023-11-14T07:14:53.894Z,8.55
2023-11-14T07:15:55.973Z,8.57
2023-11-14T07:16:59.248Z,8.60
2023-11-14T07:18:02.921Z,8.63
2023-11-14T07:19:06.211Z,8.64
2023-11-14T07:20:11.901Z,8.67
2023-11-14T07:21:17.040Z,8.68
2023-11-14T07:22:19.034Z,8.69
2023-11-14T07:23:22.125Z,8.71
2023-11-14T07:24:24.454Z,8.72
2023-11-14T07:25:29.523Z,8.74
2023-11-14T07:26:31.568Z,8.75
2023-11-14T07:27:34.511Z,8.76
2023-11-14T07:28:36.467Z,8.78
2023-11-14T07:29:39.471Z,8.80
2023-11-14T07:30:43.203Z,8.81
2023-11-14T07:31:46.792Z,8.82
2023-11-14T07:32:48.829Z,8.83
2023-11-14T07:33:51.775Z,8.83
2023-11-14T07:34:54.224Z,8.85
2023-11-14T07:35:57.918Z,8.87
2023-11-14T07:37:00.339Z,8.88
2023-11-14T07:38:03.366Z,8.90
2023-11-14T07:39:06.662Z,8.91
2023-11-14T07:40:11.945Z,8.94
2023-11-14T07:41:15.611Z,8.96
2023-11-14T07:42:19.361Z,8.97
2023-11-14T07:43:25.440Z,8.99
2023-11-14T07:44:28.874Z,9.01
2023-11-14T07:45:31.143Z,9.02
2023-11-14T07:46:34.768Z,9.04
2023-11-14T07:47:37.089Z,9.05
2023-11-14T07:48:40.429Z,9.08
2023-11-14T07:49:42.794Z,9.09
2023-11-14T07:50:46.063Z,9.11
2023-11-14T07:51:49.244Z,9.15
2023-11-14T07:52:52.666Z,9.17
2023-11-14T07:53:56.882Z,9.19
2023-11-14T07:55:04.038Z,9.21
2023-11-14T07:56:07.091Z,9.23
2023-11-14T07:57:11.678Z,9.25
2023-11-14T07:58:14.102Z,9.25
2023-11-14T07:59:17.535Z,9.26
2023-11-14T08:00:22.344Z,9.25
2023-11-14T08:01:25.623Z,9.26
2023-11-14T08:02:27.901Z,9.27
2023-11-14T08:03:31.372Z,9.28
2023-11-14T08:04:34.305Z,9.29
2023-11-14T08:05:41.526Z,9.29
2023-11-14T08:06:43.702Z,9.29
2023-11-14T08:07:47.093Z,9.30
2023-11-14T08:08:50.535Z,9.30
2023-11-14T08:09:53.893Z,9.32
2023-11-14T08:10:56.099Z,9.33
2023-11-14T08:11:59.494Z,9.35
2023-11-14T08:13:02.897Z,9.36
2023-11-14T08:14:05.445Z,9.36
2023-11-14T08:15:09.092Z,9.36
2023-11-14T08:16:11.066Z,9.37
2023-11-14T08:17:14.218Z,9.38
2023-11-14T08:18:16.941Z,9.38
2023-11-14T08:19:20.098Z,9.38
2023-11-14T08:20:22.160Z,9.38
2023-11-14T08:21:25.860Z,9.39
2023-11-14T08:22:27.862Z,9.40
2023-11-14T08:23:30.863Z,9.42
2023-11-14T08:24:32.870Z,9.46
2023-11-14T08:25:36.010Z,9.47
2023-11-14T08:26:38.066Z,9.50
2023-11-14T08:27:41.549Z,9.53
2023-11-14T08:28:44.916Z,9.56
2023-11-14T08:29:48.655Z,9.61
2023-11-14T08:30:50.772Z,9.64
2023-11-14T08:31:54.983Z,9.67
2023-11-14T08:32:57.456Z,9.69
2023-11-14T08:33:59.515Z,9.73
2023-11-14T08:35:04.899Z,9.76
2023-11-14T08:36:08.398Z,9.80
2023-11-14T08:37:11.448Z,9.83
2023-11-14T08:38:17.531Z,9.86
2023-11-14T08:39:24.841Z,9.91
2023-11-14T08:40:30.144Z,9.94
2023-11-14T08:41:32.226Z,10.01
2023-11-14T08:42:35.590Z,10.05
2023-11-14T08:43:38.333Z,10.07
2023-11-14T08:44:42.630Z,10.07
2023-11-14T08:45:44.965Z,10.05
2023-11-14T08:46:48.815Z,10.06
2023-11-14T08:47:50.989Z,10.06
2023-11-14T08:48:54.018Z,10.07
2023-11-14T08:49:56.565Z,10.09
2023-11-14T08:50:59.573Z,10.12
2023-11-14T08:52:01.681Z,10.15
2023-11-14T08:53:04.875Z,10.17
2023-11-14T08:54:07.663Z,10.20
2023-11-14T08:55:10.661Z,10.23
2023-11-14T08:56:12.758Z,10.25
2023-11-14T08:57:17.203Z,10.26
2023-11-14T08:58:19.252Z,10.26
2023-11-14T08:59:22.999Z,10.27
2023-11-14T09:00:27.756Z,10.29
2023-11-14T09:01:30.900Z,10.29
2023-11-14T09:02:33.323Z,10.28
2023-11-14T09:03:36.419Z,10.26
2023-11-14T09:04:38.504Z,10.25
2023-11-14T09:05:40.479Z,10.26
2023-11-14T09:06:43.516Z,10.25
2023-11-14T09:07:45.625Z,10.27
2023-11-14T09:08:48.582Z,10.29
2023-11-14T09:09:50.835Z,10.30
2023-11-14T09:10:53.124Z,10.33
2023-11-14T09:11:56.108Z,10.36
2023-11-14T09:12:58.522Z,10.41
2023-11-14T09:14:03.250Z,10.49
2023-11-14T09:15:06.451Z,10.57
2023-11-14T09:16:10.452Z,10.63
2023-11-14T09:17:14.160Z,10.68
2023-11-14T09:18:16.601Z,10.73
2023-11-14T09:19:19.733Z,10.74
2023-11-14T09:20:21.847Z,10.80
2023-11-14T09:21:23.973Z,10.85
2023-11-14T09:22:30.213Z,10.89
2023-11-14T09:23:33.396Z,10.92
2023-11-14T09:24:36.399Z,10.94
2023-11-14T09:25:38.400Z,10.96
2023-11-14T09:26:41.531Z,10.97
2023-11-14T09:27:46.186Z,10.96
2023-11-14T09:28:49.384Z,10.94
2023-11-14T09:29:52.173Z,10.91
2023-11-14T09:30:55.599Z,10.89
2023-11-14T09:32:05.169Z,10.88
2023-11-14T09:33:08.922Z,10.87
2023-11-14T09:34:11.037Z,10.87
2023-11-14T09:35:16.088Z,10.90
2023-11-14T09:36:18.739Z,10.94
2023-11-14T09:37:21.670Z,10.93
2023-11-14T09:38:23.841Z,10.94
2023-11-14T09:39:27.669Z,10.94
2023-11-14T09:40:29.812Z,10.93
2023-11-14T09:41:34.068Z,10.94
2023-11-14T09:42:36.283Z,10.95
2023-11-14T09:43:40.452Z,10.95
2023-11-14T09:44:42.549Z,10.92
2023-11-14T09:45:46.274Z,10.90
2023-11-14T09:46:50.067Z,10.90
2023-11-14T09:47:55.918Z,10.89
2023-11-14T09:48:59.101Z,10.92
2023-11-14T09:50:01.144Z,10.94
2023-11-14T09:51:05.720Z,10.95
2023-11-14T09:52:08.158Z,10.97
2023-11-14T09:53:11.952Z,10.99
2023-11-14T09:54:16.802Z,11.03
2023-11-14T09:55:20.115Z,11.07
2023-11-14T09:56:22.431Z,11.09
2023-11-14T09:57:25.553Z,11.11
2023-11-14T09:58:27.598Z,11.11
2023-11-14T09:59:31.500Z,11.11
2023-11-14T10:00:34.521Z,11.13
2023-11-14T10:01:37.595Z,11.15
2023-11-14T10:02:40.570Z,11.15
2023-11-14T10:03:45.219Z,11.16
2023-11-14T10:04:47.348Z,11.17
2023-11-14T10:05:50.438Z,11.18
2023-11-14T10:06:52.514Z,11.18
2023-11-14T10:07:57.093Z,11.18
2023-11-14T10:09:01.912Z,11.17
2023-11-14T10:10:07.037Z,11.17
2023-11-14T10:11:10.883Z,11.15
2023-11-14T10:12:21.308Z,11.17
2023-11-14T10:13:27.473Z,11.21
2023-11-14T10:14:44.149Z,11.27
2023-11-14T10:15:46.154Z,11.27
2023-11-14T10:16:58.902Z,11.30
2023-11-14T10:18:04.099Z,11.30
2023-11-14T10:19:14.038Z,11.31
2023-11-14T10:20:18.115Z,11.29
2023-11-14T10:21:34.885Z,11.29
2023-11-14T10:22:45.999Z,11.31
2023-11-14T10:23:48.992Z,11.31
2023-11-14T10:24:51.089Z,11.33
2023-11-14T10:25:54.110Z,11.32
2023-11-14T10:26:56.218Z,11.32
2023-11-14T10:28:01.086Z,11.31
2023-11-14T10:29:04.248Z,11.32
2023-11-14T10:30:08.706Z,11.28
2023-11-14T10:31:16.133Z,11.25
2023-11-14T10:32:20.815Z,11.27
2023-11-14T10:33:30.729Z,11.28
2023-11-14T10:34:35.667Z,11.35
2023-11-14T10:35:37.871Z,11.38
2023-11-14T10:36:47.332Z,11.41
2023-11-14T10:37:50.633Z,11.48
2023-11-14T10:39:01.897Z,11.59
2023-11-14T10:40:07.539Z,11.68
2023-11-14T10:41:11.230Z,11.80
2023-11-14T10:42:13.749Z,11.92
2023-11-14T10:43:16.847Z,12.00
2023-11-14T10:44:19.254Z,12.06
2023-11-14T10:45:21.421Z,12.05
2023-11-14T10:46:27.605Z,12.01
2023-11-14T10:47:39.756Z,11.98
2023-11-14T10:48:42.907Z,11.90
2023-11-14T10:49:47.035Z,11.90
2023-11-14T10:50:50.944Z,11.92
2023-11-14T10:51:53.819Z,11.96
2023-11-14T10:52:57.296Z,11.95
2023-11-14T10:54:00.371Z,11.93
2023-11-14T10:55:03.827Z,11.92
2023-11-14T10:56:08.190Z,11.90
2023-11-14T10:57:21.594Z,11.88
2023-11-14T10:58:26.403Z,11.85
2023-11-14T10:59:31.820Z,11.78
2023-11-14T11:00:35.504Z,11.75
2023-11-14T11:01:38.748Z,11.77
2023-11-14T11:02:41.639Z,11.75
2023-11-14T11:03:45.090Z,11.74
2023-11-14T11:04:48.703Z,11.76
2023-11-14T11:05:51.782Z,11.77
2023-11-14T11:06:53.898Z,11.80
2023-11-14T11:07:57.903Z,11.81
2023-11-14T11:09:01.072Z,11.81
2023-11-14T11:10:05.364Z,11.78
2023-11-14T11:11:08.251Z,11.79
2023-11-14T11:12:11.584Z,11.80
2023-11-14T11:13:15.652Z,11.80
2023-11-14T11:14:20.149Z,11.78
2023-11-14T11:15:22.203Z,11.73
2023-11-14T11:16:45.059Z,11.66
2023-11-14T11:17:48.029Z,11.59
2023-11-14T11:18:51.057Z,11.51
2023-11-14T11:19:54.470Z,11.49
2023-11-14T11:21:09.571Z,11.43
2023-11-14T11:22:14.554Z,11.39
2023-11-14T11:23:17.668Z,11.37
2023-11-14T11:24:29.510Z,11.34
2023-11-14T11:25:39.798Z,11.23
2023-11-14T11:27:16.576Z,11.19
2023-11-14T11:28:35.513Z,11.16
2023-11-14T11:29:55.980Z,11.12
2023-11-14T11:31:08.673Z,11.12
2023-11-14T11:32:27.793Z,11.11
2023-11-14T11:33:34.269Z,11.10
2023-11-14T11:34:36.291Z,11.09
2023-11-14T11:35:40.878Z,11.12
2023-11-14T11:36:42.903Z,11.10
2023-11-14T11:37:45.281Z,11.07
2023-11-14T11:38:54.094Z,11.04
2023-11-14T11:40:07.116Z,11.01
2023-11-14T11:41:14.597Z,11.02
2023-11-14T11:42:18.712Z,11.02
2023-11-14T11:43:21.741Z,11.03
2023-11-14T11:44:36.362Z,11.03
2023-11-14T11:45:41.157Z,11.05
2023-11-14T11:46:44.946Z,11.07
2023-11-14T11:47:48.067Z,11.10
2023-11-14T11:48:50.170Z,11.10
2023-11-14T11:49:53.159Z,11.10
2023-11-14T11:50:57.452Z,11.11
2023-11-14T11:52:14.891Z,11.08
2023-11-14T11:53:17.419Z,11.04
2023-11-14T11:54:35.620Z,10.99
2023-11-14T11:55:38.033Z,10.98
2023-11-14T11:56:41.804Z,10.96
2023-11-14T11:57:44.708Z,10.95
2023-11-14T11:58:48.443Z,10.93
2023-11-14T12:00:23.645Z,10.91
2023-11-14T12:01:26.918Z,10.92
2023-11-14T12:02:30.802Z,10.93
2023-11-14T12:03:33.700Z,10.96
2023-11-14T12:04:37.080Z,10.99
2023-11-14T12:05:39.308Z,10.99
2023-11-14T12:06:45.506Z,11.05
2023-11-14T12:07:48.075Z,11.10
2023-11-14T12:08:52.858Z,11.16
2023-11-14T12:09:54.913Z,11.23
2023-11-14T12:10:58.597Z,11.35
2023-11-14T12:12:01.347Z,11.45
2023-11-14T12:13:05.895Z,11.49
2023-11-14T12:14:10.712Z,11.49
2023-11-14T12:15:17.377Z,11.48
2023-11-14T12:16:21.963Z,11.49
2023-11-14T12:17:25.355Z,11.47
2023-11-14T12:18:28.351Z,11.43
2023-11-14T12:19:30.703Z,11.37
2023-11-14T12:20:34.204Z,11.31
2023-11-14T12:21:36.993Z,11.25
2023-11-14T12:22:40.621Z,11.19
2023-11-14T12:23:43.798Z,11.15
2023-11-14T12:24:45.847Z,11.13
2023-11-14T12:25:49.156Z,11.13
2023-11-14T12:26:51.399Z,11.13
2023-11-14T12:28:03.603Z,11.15
2023-11-14T12:29:07.931Z,11.18
2023-11-14T12:30:11.114Z,11.19
2023-11-14T12:31:27.467Z,11.25
2023-11-14T12:32:29.613Z,11.26
2023-11-14T12:33:33.425Z,11.25
2023-11-14T12:34:36.031Z,11.22
2023-11-14T12:35:52.277Z,11.23
2023-11-14T12:37:06.866Z,11.21
2023-11-14T12:38:10.244Z,11.21
2023-11-14T12:39:14.760Z,11.20
2023-11-14T12:40:20.476Z,11.17
2023-11-14T12:41:27.143Z,11.16
2023-11-14T12:42:29.263Z,11.14
2023-11-14T12:43:31.469Z,11.12
2023-11-14T12:44:34.979Z,11.13
2023-11-14T12:45:47.349Z,11.11
2023-11-14T12:46:56.261Z,11.13
2023-11-14T12:47:58.684Z,11.09
2023-11-14T12:49:15.896Z,11.09
2023-11-14T12:50:23.922Z,11.07
2023-11-14T12:51:25.955Z,11.05
2023-11-14T12:52:31.973Z,11.02
2023-11-14T12:53:35.342Z,10.96
2023-11-14T12:54:39.458Z,10.89
2023-11-14T12:55:42.715Z,10.82
2023-11-14T12:56:46.468Z,10.78
2023-11-14T12:57:48.630Z,10.71
2023-11-14T12:58:50.605Z,10.64
2023-11-14T12:59:53.599Z,10.56
2023-11-14T13:01:05.975Z,10.49
2023-11-14T13:02:09.320Z,10.42
2023-11-14T13:03:11.442Z,10.36
2023-11-14T13:04:16.671Z,10.30
2023-11-14T13:05:19.642Z,10.25
2023-11-14T13:06:23.565Z,10.21
2023-11-14T13:07:25.589Z,10.17
2023-11-14T13:08:28.562Z,10.15
2023-11-14T13:09:32.644Z,10.14
2023-11-14T13:10:36.088Z,10.14
2023-11-14T13:11:40.786Z,10.15
2023-11-14T13:12:43.799Z,10.15
2023-11-14T13:13:45.743Z,10.17
2023-11-14T13:14:49.940Z,10.18
2023-11-14T13:15:51.989Z,10.17
2023-11-14T13:16:55.065Z,10.17
2023-11-14T13:17:57.164Z,10.14
2023-11-14T13:18:59.271Z,10.13
2023-11-14T13:20:02.218Z,10.11
2023-11-14T13:21:04.839Z,10.09
2023-11-14T13:22:08.175Z,10.07
2023-11-14T13:23:10.231Z,10.03
2023-11-14T13:24:13.243Z,10.04
2023-11-14T13:25:18.694Z,9.99
2023-11-14T13:26:31.882Z,9.96
2023-11-14T13:27:33.876Z,9.92
2023-11-14T13:28:37.009Z,9.90
2023-11-14T13:29:38.971Z,9.90
2023-11-14T13:30:44.065Z,9.87
2023-11-14T13:31:46.204Z,9.86
2023-11-14T13:32:49.271Z,9.84
2023-11-14T13:33:52.334Z,9.83
2023-11-14T13:34:55.589Z,9.82
2023-11-14T13:35:57.649Z,9.82
2023-11-14T13:37:01.040Z,9.83
2023-11-14T13:38:03.271Z,9.84
2023-11-14T13:39:07.652Z,9.85
2023-11-14T13:40:12.262Z,9.86
2023-11-14T13:41:16.764Z,9.87
2023-11-14T13:42:29.704Z,9.90
2023-11-14T13:43:31.804Z,9.92
2023-11-14T13:44:34.766Z,9.95
2023-11-14T13:45:36.919Z,9.96
2023-11-14T13:46:39.887Z,9.94
2023-11-14T13:47:42.096Z,9.94
2023-11-14T13:48:44.394Z,9.92
2023-11-14T13:49:47.381Z,9.90
2023-11-14T13:50:49.513Z,9.85
2023-11-14T13:51:52.482Z,9.82
2023-11-14T13:52:54.532Z,9.79
2023-11-14T13:53:57.564Z,9.77
2023-11-14T13:54:59.676Z,9.74
2023-11-14T13:56:04.955Z,9.73
2023-11-14T13:57:08.346Z,9.70
2023-11-14T13:58:11.683Z,9.69
2023-11-14T13:59:14.164Z,9.68
2023-11-14T14:00:18.934Z,9.67
2023-11-14T14:01:21.119Z,9.66
2023-11-14T14:02:24.281Z,9.64